sensor_id;sensor_type;location;lat;lon;timestamp;P1;durP1;ratioP1;P2;durP2;ratioP2
71475;SDS011;59286;59.274;17.974;2024-03-23T00:55:10;18.58;;;3.33;;
71475;SDS011;59286;59.274;17.974;2024-03-23T00:57:36;20.77;;;2.50;;
71475;SDS011;59286;59.274;17.974;2024-03-23T01:00:01;12.70;;;2.55;;
71475;SDS011;59286;59.274;17.974;2024-03-23T01:02:27;23.00;;;3.40;;
71475;SDS011;59286;59.274;17.974;2024-03-23T01:04:52;14.20;;;2.53;;
71475;SDS011;59286;59.274;17.974;2024-03-23T01:07:18;15.40;;;2.67;;
71475;SDS011;59286;59.274;17.974;2024-03-23T01:09:43;9.52;;;2.53;;
71475;SDS011;59286;59.274;17.974;2024-03-23T01:12:08;15.00;;;2.50;;
71475;SDS011;59286;59.274;17.974;2024-03-23T01:14:34;13.82;;;2.28;;
71475;SDS011;59286;59.274;17.974;2024-03-23T01:17:01;16.35;;;2.20;;
71475;SDS011;59286;59.274;17.974;2024-03-23T01:19:26;16.20;;;2.78;;
71475;SDS011;59286;59.274;17.974;2024-03-23T01:21:52;16.13;;;2.40;;
71475;SDS011;59286;59.274;17.974;2024-03-23T01:24:17;13.60;;;2.40;;
71475;SDS011;59286;59.274;17.974;2024-03-23T01:26:42;13.80;;;2.38;;
71475;SDS011;59286;59.274;17.974;2024-03-23T01:29:08;14.90;;;2.30;;
71475;SDS011;59286;59.274;17.974;2024-03-23T01:31:33;13.30;;;2.78;;
71475;SDS011;59286;59.274;17.974;2024-03-23T01:33:58;14.75;;;3.00;;
71475;SDS011;59286;59.274;17.974;2024-03-23T01:36:24;17.25;;;2.65;;
71475;SDS011;59286;59.274;17.974;2024-03-23T01:38:49;17.50;;;2.58;;
71475;SDS011;59286;59.274;17.974;2024-03-23T01:41:15;17.27;;;2.70;;
71475;SDS011;59286;59.274;17.974;2024-03-23T01:43:40;13.75;;;2.45;;
71475;SDS011;59286;59.274;17.974;2024-03-23T01:46:06;15.70;;;2.58;;
71475;SDS011;59286;59.274;17.974;2024-03-23T01:48:31;14.93;;;2.97;;
71475;SDS011;59286;59.274;17.974;2024-03-23T01:50:57;12.05;;;2.50;;
71475;SDS011;59286;59.274;17.974;2024-03-23T01:53:23;14.45;;;2.75;;
71475;SDS011;59286;59.274;17.974;2024-03-23T01:55:49;15.20;;;2.50;;
71475;SDS011;59286;59.274;17.974;2024-03-23T01:58:15;11.32;;;2.30;;
71475;SDS011;59286;59.274;17.974;2024-03-23T02:00:41;13.05;;;2.20;;
71475;SDS011;59286;59.274;17.974;2024-03-23T02:03:25;13.55;;;2.85;;
71475;SDS011;59286;59.274;17.974;2024-03-23T02:05:51;14.38;;;2.78;;
71475;SDS011;59286;59.274;17.974;2024-03-23T02:08:18;14.77;;;2.50;;
71475;SDS011;59286;59.274;17.974;2024-03-23T02:10:51;13.10;;;2.80;;
71475;SDS011;59286;59.274;17.974;2024-03-23T02:13:17;12.27;;;2.90;;
71475;SDS011;59286;59.274;17.974;2024-03-23T02:15:44;13.45;;;2.13;;
71475;SDS011;59286;59.274;17.974;2024-03-23T02:18:09;15.70;;;2.15;;
71475;SDS011;59286;59.274;17.974;2024-03-23T02:20:35;18.40;;;3.40;;
71475;SDS011;59286;59.274;17.974;2024-03-23T02:23:01;13.23;;;2.20;;
71475;SDS011;59286;59.274;17.974;2024-03-23T02:25:27;13.95;;;2.53;;
71475;SDS011;59286;59.274;17.974;2024-03-23T02:27:52;23.20;;;3.65;;
71475;SDS011;59286;59.274;17.974;2024-03-23T02:30:19;12.35;;;2.05;;
71475;SDS011;59286;59.274;17.974;2024-03-23T02:32:44;11.80;;;2.58;;
71475;SDS011;59286;59.274;17.974;2024-03-23T02:35:10;14.43;;;2.60;;
71475;SDS011;59286;59.274;17.974;2024-03-23T02:37:35;8.95;;;2.20;;
71475;SDS011;59286;59.274;17.974;2024-03-23T02:40:00;12.75;;;2.47;;
71475;SDS011;59286;59.274;17.974;2024-03-23T02:42:26;18.65;;;2.75;;
71475;SDS011;59286;59.274;17.974;2024-03-23T02:44:51;17.38;;;3.00;;
71475;SDS011;59286;59.274;17.974;2024-03-23T02:47:16;20.52;;;2.47;;
71475;SDS011;59286;59.274;17.974;2024-03-23T02:49:41;18.70;;;2.83;;
71475;SDS011;59286;59.274;17.974;2024-03-23T02:52:07;16.23;;;3.15;;
71475;SDS011;59286;59.274;17.974;2024-03-23T02:54:32;13.35;;;2.33;;
71475;SDS011;59286;59.274;17.974;2024-03-23T02:56:57;16.73;;;2.88;;
71475;SDS011;59286;59.274;17.974;2024-03-23T02:59:23;14.70;;;2.50;;
71475;SDS011;59286;59.274;17.974;2024-03-23T03:01:48;18.65;;;2.65;;
71475;SDS011;59286;59.274;17.974;2024-03-23T03:04:13;11.32;;;2.42;;
71475;SDS011;59286;59.274;17.974;2024-03-23T03:06:38;17.65;;;2.65;;
71475;SDS011;59286;59.274;17.974;2024-03-23T03:09:05;14.65;;;3.00;;
71475;SDS011;59286;59.274;17.974;2024-03-23T03:11:31;19.92;;;2.55;;
71475;SDS011;59286;59.274;17.974;2024-03-23T03:13:56;15.48;;;2.90;;
71475;SDS011;59286;59.274;17.974;2024-03-23T03:16:22;16.80;;;3.15;;
71475;SDS011;59286;59.274;17.974;2024-03-23T03:18:47;16.27;;;2.80;;
71475;SDS011;59286;59.274;17.974;2024-03-23T03:21:12;22.65;;;3.25;;
71475;SDS011;59286;59.274;17.974;2024-03-23T03:23:38;19.77;;;2.78;;
71475;SDS011;59286;59.274;17.974;2024-03-23T03:26:04;14.23;;;2.70;;
71475;SDS011;59286;59.274;17.974;2024-03-23T03:28:30;18.83;;;2.90;;
71475;SDS011;59286;59.274;17.974;2024-03-23T03:30:57;17.23;;;2.85;;
71475;SDS011;59286;59.274;17.974;2024-03-23T03:33:23;25.40;;;3.13;;
71475;SDS011;59286;59.274;17.974;2024-03-23T03:35:48;18.90;;;3.05;;
71475;SDS011;59286;59.274;17.974;2024-03-23T03:38:14;21.45;;;3.17;;
71475;SDS011;59286;59.274;17.974;2024-03-23T03:40:39;15.85;;;3.10;;
71475;SDS011;59286;59.274;17.974;2024-03-23T03:43:06;19.40;;;3.05;;
71475;SDS011;59286;59.274;17.974;2024-03-23T03:45:31;22.33;;;3.00;;
71475;SDS011;59286;59.274;17.974;2024-03-23T03:47:57;16.95;;;2.88;;
71475;SDS011;59286;59.274;17.974;2024-03-23T03:50:22;15.02;;;2.95;;
71475;SDS011;59286;59.274;17.974;2024-03-23T03:52:48;19.10;;;2.95;;
71475;SDS011;59286;59.274;17.974;2024-03-23T03:55:14;17.83;;;2.80;;
71475;SDS011;59286;59.274;17.974;2024-03-23T03:57:39;17.67;;;3.25;;
71475;SDS011;59286;59.274;17.974;2024-03-23T04:00:05;24.63;;;3.67;;
71475;SDS011;59286;59.274;17.974;2024-03-23T04:02:31;19.80;;;3.50;;
71475;SDS011;59286;59.274;17.974;2024-03-23T04:04:56;23.52;;;2.78;;
71475;SDS011;59286;59.274;17.974;2024-03-23T04:07:22;20.00;;;3.63;;
71475;SDS011;59286;59.274;17.974;2024-03-23T04:09:48;18.17;;;3.30;;
71475;SDS011;59286;59.274;17.974;2024-03-23T04:12:14;16.55;;;2.72;;
71475;SDS011;59286;59.274;17.974;2024-03-23T04:14:40;17.50;;;2.97;;
71475;SDS011;59286;59.274;17.974;2024-03-23T04:17:05;20.40;;;3.00;;
71475;SDS011;59286;59.274;17.974;2024-03-23T04:19:30;25.15;;;3.03;;
71475;SDS011;59286;59.274;17.974;2024-03-23T04:21:56;17.95;;;3.15;;
71475;SDS011;59286;59.274;17.974;2024-03-23T04:24:21;18.15;;;3.22;;
71475;SDS011;59286;59.274;17.974;2024-03-23T04:26:47;29.58;;;3.47;;
71475;SDS011;59286;59.274;17.974;2024-03-23T04:29:12;21.27;;;2.90;;
71475;SDS011;59286;59.274;17.974;2024-03-23T04:31:38;22.95;;;3.20;;
71475;SDS011;59286;59.274;17.974;2024-03-23T04:34:03;18.00;;;3.28;;
71475;SDS011;59286;59.274;17.974;2024-03-23T04:36:29;22.90;;;3.20;;
71475;SDS011;59286;59.274;17.974;2024-03-23T04:38:55;30.33;;;3.35;;
71475;SDS011;59286;59.274;17.974;2024-03-23T04:41:21;18.95;;;3.15;;
71475;SDS011;59286;59.274;17.974;2024-03-23T04:43:47;23.65;;;3.60;;
71475;SDS011;59286;59.274;17.974;2024-03-23T04:46:12;26.45;;;3.85;;
71475;SDS011;59286;59.274;17.974;2024-03-23T04:48:37;26.15;;;3.40;;
71475;SDS011;59286;59.274;17.974;2024-03-23T04:51:03;26.08;;;3.67;;
71475;SDS011;59286;59.274;17.974;2024-03-23T04:53:28;18.65;;;3.00;;
71475;SDS011;59286;59.274;17.974;2024-03-23T04:55:57;23.67;;;3.22;;
71475;SDS011;59286;59.274;17.974;2024-03-23T04:58:24;23.60;;;3.33;;
71475;SDS011;59286;59.274;17.974;2024-03-23T05:00:56;34.25;;;3.50;;
71475;SDS011;59286;59.274;17.974;2024-03-23T05:03:22;18.95;;;3.22;;
71475;SDS011;59286;59.274;17.974;2024-03-23T05:05:48;22.05;;;2.65;;
71475;SDS011;59286;59.274;17.974;2024-03-23T05:08:14;23.08;;;3.15;;
71475;SDS011;59286;59.274;17.974;2024-03-23T05:10:41;21.70;;;3.25;;
71475;SDS011;59286;59.274;17.974;2024-03-23T05:13:06;24.20;;;3.53;;
71475;SDS011;59286;59.274;17.974;2024-03-23T05:15:32;27.95;;;3.40;;
71475;SDS011;59286;59.274;17.974;2024-03-23T05:17:57;18.02;;;3.22;;
71475;SDS011;59286;59.274;17.974;2024-03-23T05:20:22;22.80;;;3.22;;
71475;SDS011;59286;59.274;17.974;2024-03-23T05:22:48;26.85;;;3.10;;
71475;SDS011;59286;59.274;17.974;2024-03-23T05:25:14;24.95;;;3.80;;
71475;SDS011;59286;59.274;17.974;2024-03-23T05:27:40;22.20;;;3.97;;
71475;SDS011;59286;59.274;17.974;2024-03-23T05:30:06;32.25;;;3.75;;
71475;SDS011;59286;59.274;17.974;2024-03-23T05:32:32;27.35;;;3.55;;
71475;SDS011;59286;59.274;17.974;2024-03-23T05:34:57;22.50;;;3.60;;
71475;SDS011;59286;59.274;17.974;2024-03-23T05:37:23;23.67;;;3.92;;
71475;SDS011;59286;59.274;17.974;2024-03-23T05:39:48;22.92;;;3.67;;
71475;SDS011;59286;59.274;17.974;2024-03-23T05:42:17;21.08;;;3.80;;
71475;SDS011;59286;59.274;17.974;2024-03-23T05:44:46;25.65;;;3.35;;
71475;SDS011;59286;59.274;17.974;2024-03-23T05:47:12;22.02;;;3.55;;
71475;SDS011;59286;59.274;17.974;2024-03-23T05:49:39;23.80;;;3.50;;
71475;SDS011;59286;59.274;17.974;2024-03-23T05:52:08;26.90;;;4.18;;
71475;SDS011;59286;59.274;17.974;2024-03-23T05:54:34;19.40;;;3.47;;
71475;SDS011;59286;59.274;17.974;2024-03-23T05:57:00;19.95;;;3.67;;
71475;SDS011;59286;59.274;17.974;2024-03-23T05:59:25;21.95;;;3.10;;
71475;SDS011;59286;59.274;17.974;2024-03-23T06:01:52;24.17;;;3.35;;
71475;SDS011;59286;59.274;17.974;2024-03-23T06:04:17;22.58;;;3.15;;
71475;SDS011;59286;59.274;17.974;2024-03-23T06:06:42;25.45;;;4.03;;
71475;SDS011;59286;59.274;17.974;2024-03-23T06:09:08;21.23;;;3.33;;
71475;SDS011;59286;59.274;17.974;2024-03-23T06:11:33;18.92;;;2.97;;
71475;SDS011;59286;59.274;17.974;2024-03-23T06:13:58;21.10;;;3.75;;
71475;SDS011;59286;59.274;17.974;2024-03-23T06:16:23;23.45;;;3.50;;
71475;SDS011;59286;59.274;17.974;2024-03-23T06:18:50;22.90;;;3.40;;
71475;SDS011;59286;59.274;17.974;2024-03-23T06:21:15;21.25;;;3.97;;
71475;SDS011;59286;59.274;17.974;2024-03-23T06:23:41;29.85;;;3.80;;
71475;SDS011;59286;59.274;17.974;2024-03-23T06:26:07;25.77;;;3.70;;
71475;SDS011;59286;59.274;17.974;2024-03-23T06:28:33;19.50;;;3.35;;
71475;SDS011;59286;59.274;17.974;2024-03-23T06:30:58;19.92;;;3.20;;
71475;SDS011;59286;59.274;17.974;2024-03-23T06:33:24;23.45;;;3.65;;
71475;SDS011;59286;59.274;17.974;2024-03-23T06:35:50;17.40;;;3.30;;
71475;SDS011;59286;59.274;17.974;2024-03-23T06:38:18;27.08;;;3.90;;
71475;SDS011;59286;59.274;17.974;2024-03-23T06:40:43;21.65;;;3.50;;
71475;SDS011;59286;59.274;17.974;2024-03-23T06:43:13;23.95;;;3.60;;
71475;SDS011;59286;59.274;17.974;2024-03-23T06:45:39;21.17;;;2.80;;
71475;SDS011;59286;59.274;17.974;2024-03-23T06:48:15;19.00;;;3.40;;
71475;SDS011;59286;59.274;17.974;2024-03-23T06:50:40;24.95;;;3.67;;
71475;SDS011;59286;59.274;17.974;2024-03-23T06:53:05;22.67;;;3.40;;
71475;SDS011;59286;59.274;17.974;2024-03-23T06:55:30;25.13;;;4.25;;
71475;SDS011;59286;59.274;17.974;2024-03-23T06:57:56;18.83;;;3.40;;
71475;SDS011;59286;59.274;17.974;2024-03-23T07:00:22;21.80;;;3.00;;
71475;SDS011;59286;59.274;17.974;2024-03-23T07:02:47;20.15;;;3.53;;
71475;SDS011;59286;59.274;17.974;2024-03-23T07:05:12;19.58;;;4.38;;
71475;SDS011;59286;59.274;17.974;2024-03-23T07:07:38;20.90;;;3.80;;
71475;SDS011;59286;59.274;17.974;2024-03-23T07:10:04;23.80;;;3.65;;
71475;SDS011;59286;59.274;17.974;2024-03-23T07:12:30;22.77;;;3.72;;
71475;SDS011;59286;59.274;17.974;2024-03-23T07:14:55;18.67;;;3.15;;
71475;SDS011;59286;59.274;17.974;2024-03-23T07:17:21;19.75;;;3.42;;
71475;SDS011;59286;59.274;17.974;2024-03-23T07:19:46;23.48;;;3.80;;
71475;SDS011;59286;59.274;17.974;2024-03-23T07:22:11;26.58;;;3.83;;
71475;SDS011;59286;59.274;17.974;2024-03-23T07:24:37;20.45;;;3.22;;
71475;SDS011;59286;59.274;17.974;2024-03-23T07:27:04;28.83;;;4.55;;
71475;SDS011;59286;59.274;17.974;2024-03-23T07:29:29;23.50;;;3.67;;
71475;SDS011;59286;59.274;17.974;2024-03-23T07:31:55;16.52;;;2.80;;
71475;SDS011;59286;59.274;17.974;2024-03-23T07:34:20;22.85;;;3.30;;
71475;SDS011;59286;59.274;17.974;2024-03-23T07:36:45;23.70;;;3.90;;
71475;SDS011;59286;59.274;17.974;2024-03-23T07:39:10;20.80;;;4.50;;
71475;SDS011;59286;59.274;17.974;2024-03-23T07:41:36;22.70;;;3.30;;
71475;SDS011;59286;59.274;17.974;2024-03-23T07:44:01;18.98;;;3.47;;
71475;SDS011;59286;59.274;17.974;2024-03-23T07:46:27;20.83;;;3.38;;
71475;SDS011;59286;59.274;17.974;2024-03-23T07:48:52;17.45;;;3.50;;
71475;SDS011;59286;59.274;17.974;2024-03-23T07:51:20;18.75;;;3.75;;
71475;SDS011;59286;59.274;17.974;2024-03-23T07:53:47;19.85;;;3.63;;
71475;SDS011;59286;59.274;17.974;2024-03-23T07:56:13;18.73;;;3.55;;
71475;SDS011;59286;59.274;17.974;2024-03-23T07:58:40;19.13;;;3.45;;
71475;SDS011;59286;59.274;17.974;2024-03-23T08:01:10;15.55;;;2.80;;
71475;SDS011;59286;59.274;17.974;2024-03-23T08:03:37;18.05;;;3.50;;
71475;SDS011;59286;59.274;17.974;2024-03-23T08:06:21;15.82;;;3.80;;
71475;SDS011;59286;59.274;17.974;2024-03-23T08:08:54;20.40;;;3.22;;
71475;SDS011;59286;59.274;17.974;2024-03-23T08:11:26;19.70;;;3.25;;
71475;SDS011;59286;59.274;17.974;2024-03-23T08:13:52;18.58;;;3.03;;
71475;SDS011;59286;59.274;17.974;2024-03-23T08:16:18;21.52;;;3.42;;
71475;SDS011;59286;59.274;17.974;2024-03-23T08:18:43;17.48;;;3.20;;
71475;SDS011;59286;59.274;17.974;2024-03-23T08:21:09;18.08;;;3.47;;
71475;SDS011;59286;59.274;17.974;2024-03-23T08:23:34;17.83;;;3.25;;
71475;SDS011;59286;59.274;17.974;2024-03-23T08:26:04;21.80;;;3.20;;
71475;SDS011;59286;59.274;17.974;2024-03-23T08:28:32;16.02;;;3.50;;
71475;SDS011;59286;59.274;17.974;2024-03-23T08:31:00;20.35;;;3.05;;
71475;SDS011;59286;59.274;17.974;2024-03-23T08:33:27;17.25;;;3.25;;
71475;SDS011;59286;59.274;17.974;2024-03-23T08:35:56;22.88;;;3.90;;
71475;SDS011;59286;59.274;17.974;2024-03-23T08:38:23;21.40;;;4.00;;
71475;SDS011;59286;59.274;17.974;2024-03-23T08:40:58;21.13;;;3.70;;
71475;SDS011;59286;59.274;17.974;2024-03-23T08:43:25;18.40;;;3.85;;
71475;SDS011;59286;59.274;17.974;2024-03-23T08:45:51;19.95;;;4.03;;
71475;SDS011;59286;59.274;17.974;2024-03-23T08:48:17;17.88;;;3.67;;
71475;SDS011;59286;59.274;17.974;2024-03-23T08:50:43;22.77;;;3.55;;
71475;SDS011;59286;59.274;17.974;2024-03-23T08:53:08;17.80;;;3.60;;
71475;SDS011;59286;59.274;17.974;2024-03-23T08:55:34;21.10;;;3.42;;
71475;SDS011;59286;59.274;17.974;2024-03-23T08:57:59;19.77;;;3.75;;
71475;SDS011;59286;59.274;17.974;2024-03-23T09:00:25;19.88;;;3.38;;
71475;SDS011;59286;59.274;17.974;2024-03-23T09:02:50;19.90;;;4.47;;
71475;SDS011;59286;59.274;17.974;2024-03-23T09:05:16;19.17;;;3.75;;
71475;SDS011;59286;59.274;17.974;2024-03-23T09:07:41;16.17;;;3.20;;
71475;SDS011;59286;59.274;17.974;2024-03-23T09:10:06;31.38;;;5.00;;
71475;SDS011;59286;59.274;17.974;2024-03-23T09:12:32;19.55;;;3.47;;
71475;SDS011;59286;59.274;17.974;2024-03-23T09:14:57;19.55;;;3.85;;
71475;SDS011;59286;59.274;17.974;2024-03-23T09:17:23;20.23;;;3.38;;
71475;SDS011;59286;59.274;17.974;2024-03-23T09:19:48;20.55;;;3.85;;
71475;SDS011;59286;59.274;17.974;2024-03-23T09:22:13;21.73;;;3.05;;
71475;SDS011;59286;59.274;17.974;2024-03-23T09:24:39;17.88;;;3.50;;
71475;SDS011;59286;59.274;17.974;2024-03-23T09:27:05;17.95;;;3.30;;
71475;SDS011;59286;59.274;17.974;2024-03-23T09:29:30;23.17;;;4.10;;
71475;SDS011;59286;59.274;17.974;2024-03-23T09:31:55;35.72;;;7.15;;
71475;SDS011;59286;59.274;17.974;2024-03-23T09:34:21;29.80;;;6.80;;
71475;SDS011;59286;59.274;17.974;2024-03-23T09:36:46;23.25;;;4.00;;
71475;SDS011;59286;59.274;17.974;2024-03-23T09:39:12;27.23;;;4.75;;
71475;SDS011;59286;59.274;17.974;2024-03-23T09:41:38;27.63;;;4.68;;
71475;SDS011;59286;59.274;17.974;2024-03-23T09:44:04;20.40;;;4.88;;
71475;SDS011;59286;59.274;17.974;2024-03-23T09:46:30;17.95;;;3.63;;
71475;SDS011;59286;59.274;17.974;2024-03-23T09:48:59;22.30;;;3.83;;
71475;SDS011;59286;59.274;17.974;2024-03-23T09:51:25;18.70;;;3.33;;
71475;SDS011;59286;59.274;17.974;2024-03-23T09:53:50;16.27;;;3.35;;
71475;SDS011;59286;59.274;17.974;2024-03-23T09:56:17;20.02;;;3.55;;
71475;SDS011;59286;59.274;17.974;2024-03-23T09:58:43;21.05;;;3.25;;
71475;SDS011;59286;59.274;17.974;2024-03-23T10:01:08;21.13;;;3.47;;
71475;SDS011;59286;59.274;17.974;2024-03-23T10:03:42;18.02;;;3.45;;
71475;SDS011;59286;59.274;17.974;2024-03-23T10:06:10;20.75;;;3.80;;
71475;SDS011;59286;59.274;17.974;2024-03-23T10:08:36;15.20;;;3.35;;
71475;SDS011;59286;59.274;17.974;2024-03-23T10:11:14;24.40;;;3.92;;
71475;SDS011;59286;59.274;17.974;2024-03-23T10:13:41;21.63;;;3.78;;
71475;SDS011;59286;59.274;17.974;2024-03-23T10:16:08;21.58;;;3.70;;
71475;SDS011;59286;59.274;17.974;2024-03-23T10:18:40;17.48;;;3.42;;
71475;SDS011;59286;59.274;17.974;2024-03-23T10:21:06;18.30;;;3.78;;
71475;SDS011;59286;59.274;17.974;2024-03-23T10:23:33;15.13;;;3.17;;
71475;SDS011;59286;59.274;17.974;2024-03-23T10:26:16;18.67;;;3.42;;
71475;SDS011;59286;59.274;17.974;2024-03-23T10:31:20;18.35;;;3.63;;
71475;SDS011;59286;59.274;17.974;2024-03-23T10:33:46;17.63;;;3.30;;
71475;SDS011;59286;59.274;17.974;2024-03-23T10:36:12;18.52;;;3.30;;
71475;SDS011;59286;59.274;17.974;2024-03-23T10:38:40;17.92;;;3.67;;
71475;SDS011;59286;59.274;17.974;2024-03-23T10:41:07;17.63;;;3.00;;
71475;SDS011;59286;59.274;17.974;2024-03-23T10:43:34;19.48;;;3.00;;
71475;SDS011;59286;59.274;17.974;2024-03-23T10:46:01;16.33;;;2.88;;
71475;SDS011;59286;59.274;17.974;2024-03-23T10:48:26;19.30;;;3.58;;
71475;SDS011;59286;59.274;17.974;2024-03-23T10:50:52;19.23;;;4.30;;
71475;SDS011;59286;59.274;17.974;2024-03-23T10:53:18;15.82;;;2.97;;
71475;SDS011;59286;59.274;17.974;2024-03-23T10:55:45;16.52;;;2.90;;
71475;SDS011;59286;59.274;17.974;2024-03-23T10:58:11;16.60;;;2.92;;
71475;SDS011;59286;59.274;17.974;2024-03-23T11:00:37;17.75;;;3.15;;
71475;SDS011;59286;59.274;17.974;2024-03-23T11:06:01;18.35;;;2.97;;
71475;SDS011;59286;59.274;17.974;2024-03-23T11:08:37;16.60;;;2.97;;
71475;SDS011;59286;59.274;17.974;2024-03-23T11:13:48;14.95;;;3.30;;
71475;SDS011;59286;59.274;17.974;2024-03-23T11:16:16;13.95;;;3.25;;
71475;SDS011;59286;59.274;17.974;2024-03-23T11:18:42;17.25;;;3.00;;
71475;SDS011;59286;59.274;17.974;2024-03-23T11:21:08;17.63;;;3.30;;
71475;SDS011;59286;59.274;17.974;2024-03-23T11:23:34;18.35;;;3.10;;
71475;SDS011;59286;59.274;17.974;2024-03-23T11:25:59;18.27;;;3.22;;
71475;SDS011;59286;59.274;17.974;2024-03-23T11:28:25;20.65;;;3.22;;
71475;SDS011;59286;59.274;17.974;2024-03-23T11:30:51;20.80;;;3.53;;
71475;SDS011;59286;59.274;17.974;2024-03-23T11:33:16;15.32;;;3.42;;
71475;SDS011;59286;59.274;17.974;2024-03-23T11:35:42;14.40;;;2.45;;
71475;SDS011;59286;59.274;17.974;2024-03-23T11:38:08;14.43;;;3.08;;
71475;SDS011;59286;59.274;17.974;2024-03-23T11:40:35;21.67;;;3.25;;
71475;SDS011;59286;59.274;17.974;2024-03-23T11:43:04;20.50;;;3.55;;
71475;SDS011;59286;59.274;17.974;2024-03-23T11:45:34;14.88;;;2.75;;
71475;SDS011;59286;59.274;17.974;2024-03-23T11:48:01;16.35;;;2.83;;
71475;SDS011;59286;59.274;17.974;2024-03-23T11:50:49;18.80;;;3.50;;
71475;SDS011;59286;59.274;17.974;2024-03-23T11:53:20;19.77;;;3.00;;
71475;SDS011;59286;59.274;17.974;2024-03-23T11:58:12;18.13;;;3.53;;
71475;SDS011;59286;59.274;17.974;2024-03-23T12:00:38;16.25;;;3.28;;
71475;SDS011;59286;59.274;17.974;2024-03-23T12:03:04;14.77;;;2.70;;
71475;SDS011;59286;59.274;17.974;2024-03-23T12:05:31;19.90;;;3.10;;
71475;SDS011;59286;59.274;17.974;2024-03-23T12:10:49;16.63;;;2.72;;
71475;SDS011;59286;59.274;17.974;2024-03-23T12:13:19;12.77;;;2.47;;
71475;SDS011;59286;59.274;17.974;2024-03-23T12:15:46;13.20;;;2.72;;
71475;SDS011;59286;59.274;17.974;2024-03-23T12:18:14;10.35;;;2.28;;
71475;SDS011;59286;59.274;17.974;2024-03-23T12:20:39;16.98;;;3.42;;
71475;SDS011;59286;59.274;17.974;2024-03-23T12:23:05;13.52;;;2.70;;
71475;SDS011;59286;59.274;17.974;2024-03-23T12:25:36;13.52;;;3.00;;
71475;SDS011;59286;59.274;17.974;2024-03-23T12:28:02;13.63;;;2.55;;
71475;SDS011;59286;59.274;17.974;2024-03-23T12:30:27;10.93;;;2.53;;
71475;SDS011;59286;59.274;17.974;2024-03-23T12:32:52;9.93;;;2.28;;
71475;SDS011;59286;59.274;17.974;2024-03-23T12:35:18;12.70;;;2.40;;
71475;SDS011;59286;59.274;17.974;2024-03-23T12:37:43;13.27;;;2.90;;
71475;SDS011;59286;59.274;17.974;2024-03-23T12:40:09;13.27;;;2.55;;
71475;SDS011;59286;59.274;17.974;2024-03-23T12:42:35;13.27;;;2.55;;
71475;SDS011;59286;59.274;17.974;2024-03-23T12:45:00;11.77;;;2.30;;
71475;SDS011;59286;59.274;17.974;2024-03-23T12:47:26;14.65;;;3.03;;
71475;SDS011;59286;59.274;17.974;2024-03-23T12:49:52;16.65;;;2.90;;
71475;SDS011;59286;59.274;17.974;2024-03-23T12:52:17;17.30;;;3.28;;
71475;SDS011;59286;59.274;17.974;2024-03-23T12:54:43;16.42;;;3.67;;
71475;SDS011;59286;59.274;17.974;2024-03-23T12:57:08;13.77;;;2.83;;
71475;SDS011;59286;59.274;17.974;2024-03-23T12:59:33;12.55;;;2.63;;
71475;SDS011;59286;59.274;17.974;2024-03-23T13:02:00;12.73;;;2.65;;
71475;SDS011;59286;59.274;17.974;2024-03-23T13:04:26;14.88;;;2.35;;
71475;SDS011;59286;59.274;17.974;2024-03-23T13:06:51;11.65;;;2.50;;
71475;SDS011;59286;59.274;17.974;2024-03-23T13:09:16;12.02;;;2.33;;
71475;SDS011;59286;59.274;17.974;2024-03-23T13:11:42;18.33;;;2.88;;
71475;SDS011;59286;59.274;17.974;2024-03-23T13:14:07;13.52;;;2.40;;
71475;SDS011;59286;59.274;17.974;2024-03-23T13:16:32;10.95;;;2.40;;
71475;SDS011;59286;59.274;17.974;2024-03-23T13:18:58;15.27;;;2.60;;
71475;SDS011;59286;59.274;17.974;2024-03-23T13:21:23;11.43;;;2.20;;
71475;SDS011;59286;59.274;17.974;2024-03-23T13:23:48;12.18;;;1.90;;
71475;SDS011;59286;59.274;17.974;2024-03-23T13:26:15;9.70;;;1.95;;
71475;SDS011;59286;59.274;17.974;2024-03-23T13:28:41;16.85;;;2.67;;
71475;SDS011;59286;59.274;17.974;2024-03-23T13:31:06;10.18;;;1.95;;
71475;SDS011;59286;59.274;17.974;2024-03-23T13:33:33;12.73;;;1.80;;
71475;SDS011;59286;59.274;17.974;2024-03-23T13:35:59;11.88;;;1.73;;
71475;SDS011;59286;59.274;17.974;2024-03-23T13:38:25;13.00;;;1.85;;
71475;SDS011;59286;59.274;17.974;2024-03-23T13:43:20;7.63;;;1.40;;
71475;SDS011;59286;59.274;17.974;2024-03-23T13:45:49;6.13;;;1.15;;
71475;SDS011;59286;59.274;17.974;2024-03-23T13:48:18;7.72;;;1.42;;
71475;SDS011;59286;59.274;17.974;2024-03-23T13:50:44;7.35;;;1.38;;
71475;SDS011;59286;59.274;17.974;2024-03-23T13:53:10;9.50;;;2.33;;
71475;SDS011;59286;59.274;17.974;2024-03-23T13:55:35;12.63;;;2.30;;
71475;SDS011;59286;59.274;17.974;2024-03-23T13:58:01;11.13;;;2.53;;
71475;SDS011;59286;59.274;17.974;2024-03-23T14:00:26;9.05;;;2.38;;
71475;SDS011;59286;59.274;17.974;2024-03-23T14:02:52;9.20;;;1.92;;
71475;SDS011;59286;59.274;17.974;2024-03-23T14:05:17;12.05;;;2.20;;
71475;SDS011;59286;59.274;17.974;2024-03-23T14:07:42;8.73;;;1.60;;
71475;SDS011;59286;59.274;17.974;2024-03-23T14:10:08;9.10;;;1.30;;
71475;SDS011;59286;59.274;17.974;2024-03-23T14:12:36;10.73;;;2.03;;
71475;SDS011;59286;59.274;17.974;2024-03-23T14:15:05;9.48;;;2.97;;
71475;SDS011;59286;59.274;17.974;2024-03-23T14:17:31;7.22;;;2.08;;
71475;SDS011;59286;59.274;17.974;2024-03-23T14:19:57;7.68;;;1.65;;
71475;SDS011;59286;59.274;17.974;2024-03-23T14:22:25;6.72;;;1.38;;
71475;SDS011;59286;59.274;17.974;2024-03-23T14:24:51;11.00;;;1.52;;
71475;SDS011;59286;59.274;17.974;2024-03-23T14:27:17;9.77;;;1.48;;
71475;SDS011;59286;59.274;17.974;2024-03-23T14:29:45;8.13;;;1.92;;
71475;SDS011;59286;59.274;17.974;2024-03-23T14:32:11;11.25;;;1.75;;
71475;SDS011;59286;59.274;17.974;2024-03-23T14:34:37;6.45;;;1.40;;
71475;SDS011;59286;59.274;17.974;2024-03-23T14:37:02;8.55;;;1.50;;
71475;SDS011;59286;59.274;17.974;2024-03-23T14:39:28;11.90;;;2.03;;
71475;SDS011;59286;59.274;17.974;2024-03-23T14:41:55;11.25;;;2.85;;
71475;SDS011;59286;59.274;17.974;2024-03-23T14:44:21;8.45;;;1.85;;
71475;SDS011;59286;59.274;17.974;2024-03-23T14:46:47;14.30;;;2.13;;
71475;SDS011;59286;59.274;17.974;2024-03-23T14:49:15;11.43;;;2.25;;
71475;SDS011;59286;59.274;17.974;2024-03-23T14:51:41;10.75;;;2.60;;
71475;SDS011;59286;59.274;17.974;2024-03-23T14:54:07;15.50;;;2.63;;
71475;SDS011;59286;59.274;17.974;2024-03-23T14:56:32;9.80;;;2.45;;
71475;SDS011;59286;59.274;17.974;2024-03-23T14:58:59;14.52;;;3.38;;
71475;SDS011;59286;59.274;17.974;2024-03-23T15:01:25;10.40;;;2.13;;
71475;SDS011;59286;59.274;17.974;2024-03-23T15:03:50;9.35;;;2.35;;
71475;SDS011;59286;59.274;17.974;2024-03-23T15:06:18;10.02;;;2.70;;
71475;SDS011;59286;59.274;17.974;2024-03-23T15:08:43;13.95;;;2.50;;
71475;SDS011;59286;59.274;17.974;2024-03-23T15:11:09;18.15;;;3.03;;
71475;SDS011;59286;59.274;17.974;2024-03-23T15:13:35;12.60;;;2.05;;
71475;SDS011;59286;59.274;17.974;2024-03-23T15:16:00;11.43;;;2.15;;
71475;SDS011;59286;59.274;17.974;2024-03-23T15:18:28;7.82;;;1.60;;
71475;SDS011;59286;59.274;17.974;2024-03-23T15:20:55;10.32;;;1.70;;
71475;SDS011;59286;59.274;17.974;2024-03-23T15:23:21;6.55;;;1.50;;
71475;SDS011;59286;59.274;17.974;2024-03-23T15:25:53;7.20;;;1.58;;
71475;SDS011;59286;59.274;17.974;2024-03-23T15:30:48;10.05;;;1.80;;